Time;durP1;ratioP1;P1;durP2;ratioP2;P2;SDS_P1;SDS_P2;PMS_P1;PMS_P2;Temp;Humidity;BMP_temperature;BMP_pressure;BME280_temperature;BME280_humidity;BME280_pressure;Samples;Min_cycle;Max_cycle;Signal;HPM_P1;HPM_P2
2022/03/04 00:02:11;;;;;;;26.92;16.63;;;2.10;86.70;;;;;;5133105;27;20031;-77
2022/03/04 00:04:37;;;;;;;24.95;15.63;;;2.10;86.90;;;;;;5132700;27;20494;-77
2022/03/04 00:07:07;;;;;;;23.67;13.75;;;2.10;86.90;;;;;;5132641;27;20061;-77
2022/03/04 00:09:35;;;;;;;26.35;16.65;;;2.10;86.90;;;;;;5132754;27;20043;-78
2022/03/04 00:12:07;;;;;;;27.38;16.35;;;2.00;86.90;;;;;;5116061;27;20039;-78
2022/03/04 00:14:33;;;;;;;25.95;15.55;;;2.00;86.90;;;;;;5115853;28;20118;-78
2022/03/04 00:16:59;;;;;;;26.25;15.52;;;2.00;86.90;;;;;;5132858;27;20094;-77
2022/03/04 00:19:27;;;;;;;25.98;14.93;;;1.90;86.90;;;;;;5132583;28;20483;-77
2022/03/04 00:21:53;;;;;;;25.65;15.65;;;2.00;86.30;;;;;;5132596;28;20045;-78
2022/03/04 00:24:22;;;;;;;26.67;14.73;;;2.00;86.30;;;;;;5115708;28;20039;-78
2022/03/04 00:26:49;;;;;;;25.65;15.85;;;1.90;86.70;;;;;;5132802;28;20074;-77
2022/03/04 00:29:15;;;;;;;25.95;14.73;;;1.80;86.90;;;;;;5132885;28;20405;-78
2022/03/04 00:31:42;;;;;;;25.67;14.65;;;1.80;87.10;;;;;;5132454;28;20041;-78
2022/03/04 00:34:08;;;;;;;26.98;13.80;;;1.70;87.10;;;;;;5132428;28;20117;-78
2022/03/04 00:36:36;;;;;;;26.60;14.68;;;1.70;87.10;;;;;;5132759;28;20483;-77
2022/03/04 00:39:04;;;;;;;24.00;13.40;;;1.70;87.10;;;;;;5132969;27;20070;-78
2022/03/04 00:41:30;;;;;;;21.80;13.30;;;1.60;87.20;;;;;;5136914;27;20391;-78
2022/03/04 00:43:56;;;;;;;22.98;13.40;;;1.60;86.80;;;;;;5136445;27;20043;-77
2022/03/04 00:46:22;;;;;;;23.10;14.15;;;1.60;86.70;;;;;;5136497;27;20047;-77
2022/03/04 00:48:49;;;;;;;22.90;12.77;;;1.60;86.60;;;;;;5136721;27;20047;-78
2022/03/04 00:51:15;;;;;;;21.70;12.55;;;1.60;86.90;;;;;;5136353;27;20531;-78
2022/03/04 00:53:42;;;;;;;23.55;13.50;;;1.50;86.80;;;;;;5136251;27;20039;-77
2022/03/04 00:56:09;;;;;;;22.15;13.02;;;1.40;87.10;;;;;;5136499;27;20039;-78
2022/03/04 00:58:36;;;;;;;26.17;16.20;;;1.40;87.10;;;;;;5136042;27;20035;-77
2022/03/04 01:01:02;;;;;;;25.13;13.77;;;1.40;87.20;;;;;;5136036;27;20039;-77
2022/03/04 01:03:28;;;;;;;20.50;12.35;;;1.30;87.30;;;;;;5136270;27;20106;-78
2022/03/04 01:05:54;;;;;;;21.45;12.73;;;1.40;87.50;;;;;;5118853;27;20053;-77
2022/03/04 01:08:20;;;;;;;22.90;12.93;;;1.30;87.20;;;;;;5136356;27;20491;-77
2022/03/04 01:10:46;;;;;;;18.60;12.07;;;1.40;87.30;;;;;;5118868;27;20506;-78
2022/03/04 01:13:12;;;;;;;21.08;12.40;;;1.30;87.50;;;;;;5119063;27;20138;-78
2022/03/04 01:15:38;;;;;;;22.85;14.48;;;1.30;87.60;;;;;;5135781;27;20517;-77
2022/03/04 01:18:04;;;;;;;23.67;13.68;;;1.20;87.60;;;;;;5118760;27;20087;-78
2022/03/04 01:20:31;;;;;;;19.27;12.10;;;1.30;87.70;;;;;;5118523;27;20046;-78
2022/03/04 01:22:57;;;;;;;20.95;12.90;;;1.20;87.70;;;;;;5136387;27;20058;-78
2022/03/04 01:25:23;;;;;;;19.73;11.60;;;1.30;87.50;;;;;;5136499;27;20038;-78
2022/03/04 01:27:49;;;;;;;19.83;12.27;;;1.20;87.60;;;;;;5136412;27;20031;-78
2022/03/04 01:30:15;;;;;;;22.48;12.45;;;1.20;87.60;;;;;;5136634;27;20104;-78
2022/03/04 01:32:41;;;;;;;19.90;12.60;;;1.20;87.60;;;;;;5136667;27;20500;-78
2022/03/04 01:35:08;;;;;;;17.20;10.98;;;1.20;87.50;;;;;;5135921;27;20047;-78
2022/03/04 01:37:37;;;;;;;23.95;12.98;;;1.20;87.00;;;;;;5135531;27;20518;-78
2022/03/04 01:40:05;;;;;;;21.65;13.27;;;1.20;87.20;;;;;;5135891;27;20067;-78
2022/03/04 01:42:30;;;;;;;18.13;10.55;;;1.20;86.80;;;;;;5135847;27;20043;-78
2022/03/04 01:44:56;;;;;;;21.40;12.25;;;1.20;87.20;;;;;;5135987;27;20049;-78
2022/03/04 01:47:25;;;;;;;21.40;10.90;;;1.10;87.40;;;;;;5135883;27;20514;-78
2022/03/04 01:49:51;;;;;;;20.15;11.07;;;1.10;87.20;;;;;;5119087;27;20039;-78
2022/03/04 01:52:17;;;;;;;20.67;11.93;;;1.10;87.40;;;;;;5135129;27;20035;-78
2022/03/04 01:54:43;;;;;;;19.15;11.88;;;1.10;87.60;;;;;;5135452;27;20039;-78
2022/03/04 01:57:09;;;;;;;19.02;11.35;;;1.10;87.60;;;;;;5135818;27;20035;-77
2022/03/04 01:59:35;;;;;;;18.27;12.50;;;1.10;87.70;;;;;;5118343;27;20054;-78
2022/03/04 02:02:01;;;;;;;20.13;12.27;;;1.10;87.50;;;;;;5101740;27;20039;-77
2022/03/04 02:04:27;;;;;;;18.85;11.30;;;1.10;87.50;;;;;;5101402;27;20063;-78
2022/03/04 02:06:53;;;;;;;20.38;12.15;;;1.00;87.70;;;;;;5135315;27;20095;-78
2022/03/04 02:09:19;;;;;;;18.70;12.23;;;1.00;87.70;;;;;;5101311;27;20486;-78
2022/03/04 02:11:44;;;;;;;18.80;10.90;;;1.00;87.10;;;;;;5118420;27;20041;-78
2022/03/04 02:14:11;;;;;;;18.98;11.30;;;1.00;87.50;;;;;;5135468;27;20475;-78
2022/03/04 02:16:43;;;;;;;21.25;11.30;;;1.00;87.50;;;;;;5118373;27;20509;-78
2022/03/04 02:19:09;;;;;;;17.50;11.05;;;1.00;87.70;;;;;;5135659;27;20057;-78
2022/03/04 02:21:35;;;;;;;19.70;11.77;;;0.90;87.70;;;;;;5135369;27;20417;-78
2022/03/04 02:24:01;;;;;;;24.08;12.68;;;1.00;87.20;;;;;;5135359;27;20054;-78
2022/03/04 02:26:26;;;;;;;19.05;11.57;;;0.90;87.30;;;;;;5135202;27;20484;-78
2022/03/04 02:28:52;;;;;;;20.13;12.25;;;0.90;87.60;;;;;;5134727;27;20050;-78
2022/03/04 02:31:21;;;;;;;22.48;11.93;;;0.90;87.70;;;;;;5117446;27;20046;-78
2022/03/04 02:33:48;;;;;;;23.83;13.40;;;0.90;87.50;;;;;;5134793;27;20047;-78
2022/03/04 02:36:14;;;;;;;21.50;12.77;;;0.90;87.60;;;;;;5135048;27;20039;-78
2022/03/04 02:38:40;;;;;;;18.40;11.50;;;0.90;87.50;;;;;;5118178;27;20043;-78
2022/03/04 02:41:05;;;;;;;20.35;12.15;;;0.90;87.50;;;;;;5134853;27;20050;-78
2022/03/04 02:43:31;;;;;;;21.65;11.25;;;0.80;87.70;;;;;;5117656;27;20031;-78
2022/03/04 02:45:57;;;;;;;20.75;12.05;;;0.80;87.50;;;;;;5117649;27;20479;-77
2022/03/04 02:48:23;;;;;;;20.40;12.60;;;0.80;87.20;;;;;;5100697;27;20047;-78
2022/03/04 02:50:49;;;;;;;22.90;12.77;;;0.80;87.20;;;;;;5134932;27;20429;-78
2022/03/04 02:53:14;;;;;;;22.17;12.75;;;0.80;86.70;;;;;;5100931;27;20049;-78
2022/03/04 02:55:40;;;;;;;22.20;12.82;;;0.70;87.30;;;;;;5134816;27;20514;-78
2022/03/04 02:58:06;;;;;;;21.05;12.43;;;0.70;87.30;;;;;;5134485;27;20043;-78
2022/03/04 03:00:32;;;;;;;18.02;11.70;;;0.80;87.30;;;;;;5117910;27;20051;-78
2022/03/04 03:02:58;;;;;;;18.17;11.38;;;0.70;87.50;;;;;;5133462;27;20479;-78
2022/03/04 03:05:24;;;;;;;23.67;12.85;;;0.80;87.30;;;;;;5134150;27;20051;-78
2022/03/04 03:07:50;;;;;;;24.23;13.77;;;0.70;87.40;;;;;;5100267;27;20035;-77
2022/03/04 03:10:15;;;;;;;24.42;13.60;;;0.70;87.10;;;;;;5134262;27;20215;-78
2022/03/04 03:12:42;;;;;;;21.70;12.98;;;0.60;86.80;;;;;;5134181;27;20082;-78
2022/03/04 03:15:10;;;;;;;20.83;12.30;;;0.60;87.00;;;;;;5133822;27;20072;-78
2022/03/04 03:17:36;;;;;;;22.10;12.63;;;0.60;87.30;;;;;;5133953;27;20168;-78
2022/03/04 03:20:04;;;;;;;22.38;12.82;;;0.50;87.30;;;;;;5133913;27;20082;-78
2022/03/04 03:22:29;;;;;;;20.23;13.60;;;0.40;87.50;;;;;;5133654;27;20071;-78
2022/03/04 03:24:55;;;;;;;21.80;12.35;;;0.40;87.50;;;;;;5099564;27;20081;-78
2022/03/04 03:27:21;;;;;;;26.73;13.55;;;0.40;87.00;;;;;;5133785;27;20042;-78
2022/03/04 03:29:47;;;;;;;23.35;13.98;;;0.40;86.90;;;;;;5133711;27;20498;-78
2022/03/04 03:32:14;;;;;;;26.75;14.05;;;0.30;86.90;;;;;;5133778;27;20118;-78
2022/03/04 03:34:40;;;;;;;27.80;14.65;;;0.30;87.10;;;;;;5116505;27;20035;-78
2022/03/04 03:37:08;;;;;;;22.65;14.10;;;0.30;87.40;;;;;;5134037;27;20391;-77
2022/03/04 03:39:33;;;;;;;21.10;12.82;;;0.30;87.50;;;;;;5133844;27;20038;-78
2022/03/04 03:42:00;;;;;;;24.98;13.90;;;0.30;87.40;;;;;;5116573;27;20035;-78
2022/03/04 03:44:26;;;;;;;22.70;12.73;;;0.20;87.60;;;;;;5099608;27;20039;-78
2022/03/04 03:46:52;;;;;;;24.77;14.02;;;0.20;87.70;;;;;;5116652;27;20170;-78
2022/03/04 03:49:18;;;;;;;21.58;13.10;;;0.20;87.80;;;;;;5099559;27;20055;-78
2022/03/04 03:51:43;;;;;;;23.42;13.75;;;0.20;87.80;;;;;;5133527;27;20062;-78
2022/03/04 03:54:09;;;;;;;22.65;14.35;;;0.20;88.10;;;;;;5133720;27;20042;-78
2022/03/04 03:56:36;;;;;;;27.98;14.77;;;0.20;88.60;;;;;;5116562;27;20612;-77
2022/03/04 03:59:02;;;;;;;26.70;14.95;;;0.20;88.70;;;;;;5133408;27;20038;-77
2022/03/04 04:01:27;;;;;;;25.23;14.52;;;0.20;89.10;;;;;;5133684;27;20363;-77
2022/03/04 04:03:53;;;;;;;26.63;13.80;;;0.20;89.10;;;;;;5116297;27;20117;-77
2022/03/04 04:06:19;;;;;;;27.05;14.25;;;0.20;89.20;;;;;;5133043;27;20070;-77
2022/03/04 04:08:47;;;;;;;31.58;15.25;;;0.20;89.20;;;;;;5116491;27;20372;-77
2022/03/04 04:11:13;;;;;;;23.95;13.85;;;0.20;89.00;;;;;;5116186;27;20478;-77
2022/03/04 04:13:39;;;;;;;22.45;13.40;;;0.20;89.10;;;;;;5132697;27;20038;-76
2022/03/04 04:16:05;;;;;;;22.77;13.23;;;0.20;89.00;;;;;;5132938;27;20050;-77
2022/03/04 04:18:31;;;;;;;24.48;13.35;;;0.10;88.80;;;;;;5133603;27;20039;-77
2022/03/04 04:20:56;;;;;;;26.92;14.52;;;0.10;88.80;;;;;;5133248;28;20386;-77
2022/03/04 04:23:22;;;;;;;33.83;17.15;;;0.10;88.80;;;;;;5115951;28;20032;-77
2022/03/04 04:25:48;;;;;;;27.50;16.85;;;0.10;88.40;;;;;;5133341;28;20042;-77
2022/03/04 04:28:14;;;;;;;25.40;14.35;;;0.00;88.30;;;;;;5133254;28;20042;-76
2022/03/04 04:30:40;;;;;;;31.98;17.92;;;0.00;88.40;;;;;;5116131;28;20035;-77
2022/03/04 04:33:05;;;;;;;27.63;15.77;;;0.00;88.70;;;;;;5098922;28;20487;-77
2022/03/04 04:35:31;;;;;;;26.83;16.08;;;0.00;88.90;;;;;;5132933;28;20047;-77
2022/03/04 04:37:57;;;;;;;30.45;17.02;;;0.00;88.80;;;;;;5132887;28;20466;-77
2022/03/04 04:40:23;;;;;;;32.75;18.13;;;0.00;89.10;;;;;;5099244;28;20070;-77
2022/03/04 04:42:48;;;;;;;29.10;16.92;;;0.00;89.40;;;;;;5098981;28;20074;-77
2022/03/04 04:45:14;;;;;;;33.30;17.42;;;0.00;89.60;;;;;;5132747;28;20055;-77
2022/03/04 04:47:40;;;;;;;29.08;16.48;;;0.00;89.50;;;;;;5115733;28;20042;-76
2022/03/04 04:50:07;;;;;;;30.00;16.92;;;0.00;89.60;;;;;;5116069;28;20071;-77
2022/03/04 04:52:33;;;;;;;26.73;15.68;;;0.00;89.70;;;;;;5133111;28;20039;-77
2022/03/04 04:54:59;;;;;;;28.33;15.65;;;0.00;89.70;;;;;;5132929;28;20066;-77
2022/03/04 04:57:25;;;;;;;28.23;14.43;;;0.00;89.20;;;;;;5132996;28;20039;-77
2022/03/04 04:59:51;;;;;;;29.50;16.38;;;0.00;88.90;;;;;;5116038;28;20035;-77
2022/03/04 05:02:16;;;;;;;29.27;15.70;;;0.00;88.20;;;;;;5116142;28;20074;-77
2022/03/04 05:04:42;;;;;;;26.95;16.05;;;0.00;88.10;;;;;;5081786;28;20043;-77
2022/03/04 05:07:09;;;;;;;30.48;16.13;;;-3276.70;87.90;;;;;;5132463;28;20421;-77
2022/03/04 05:09:34;;;;;;;30.15;16.42;;;-3276.60;87.90;;;;;;5132890;28;20394;-77
2022/03/04 05:12:00;;;;;;;29.90;15.52;;;-3276.60;87.90;;;;;;5132722;28;20039;-77
2022/03/04 05:14:26;;;;;;;24.58;13.88;;;-3276.50;87.80;;;;;;5132733;28;20088;-77
2022/03/04 05:16:51;;;;;;;26.95;15.90;;;-3276.50;87.90;;;;;;5132670;28;20061;-77
2022/03/04 05:19:17;;;;;;;27.88;17.25;;;-3276.50;87.80;;;;;;5115481;28;20042;-77
2022/03/04 05:21:43;;;;;;;31.15;16.30;;;-3276.40;87.70;;;;;;5114878;28;20043;-77
2022/03/04 05:24:14;;;;;;;31.58;15.95;;;-3276.40;87.60;;;;;;5115257;28;20045;-77
2022/03/04 05:26:41;;;;;;;31.77;16.30;;;-3276.40;87.90;;;;;;5116702;27;20043;-77
2022/03/04 05:29:10;;;;;;;26.73;15.10;;;-3276.40;88.20;;;;;;5136396;27;20047;-76
2022/03/04 05:31:37;;;;;;;31.10;18.45;;;-3276.40;88.30;;;;;;5136389;27;20039;-77
2022/03/04 05:34:03;;;;;;;29.52;17.17;;;-3276.40;88.20;;;;;;5136525;27;20179;-76
2022/03/04 05:36:29;;;;;;;32.20;17.35;;;-3276.40;88.00;;;;;;5135994;27;20117;-76
2022/03/04 05:38:55;;;;;;;26.60;15.20;;;-3276.50;87.90;;;;;;5119517;27;20085;-77
2022/03/04 05:41:21;;;;;;;28.17;15.23;;;-3276.40;87.90;;;;;;5136160;27;20041;-77
2022/03/04 05:43:48;;;;;;;29.15;15.82;;;-3276.40;87.60;;;;;;5136393;27;20047;-77
2022/03/04 05:46:14;;;;;;;26.88;16.20;;;-3276.40;87.90;;;;;;5101751;27;20035;-77
2022/03/04 05:48:40;;;;;;;27.73;16.42;;;-3276.40;88.10;;;;;;5118854;27;20038;-76
2022/03/04 05:51:06;;;;;;;31.67;16.55;;;-3276.40;88.20;;;;;;5135962;27;20450;-76
2022/03/04 05:53:33;;;;;;;28.30;16.17;;;-3276.30;88.30;;;;;;5118868;27;20077;-76
2022/03/04 05:56:03;;;;;;;27.90;15.48;;;-3276.30;88.50;;;;;;5136197;27;20471;-77
2022/03/04 05:58:29;;;;;;;30.40;15.98;;;-3276.30;88.90;;;;;;5136113;27;20035;-76
2022/03/04 06:00:55;;;;;;;30.80;16.25;;;-3276.30;89.10;;;;;;5135437;27;20380;-76
2022/03/04 06:03:21;;;;;;;30.70;16.90;;;-3276.30;88.70;;;;;;5135666;27;20041;-77
2022/03/04 06:05:47;;;;;;;31.70;16.38;;;-3276.40;88.20;;;;;;5135490;27;20563;-76
2022/03/04 06:08:12;;;;;;;27.95;15.85;;;-3276.40;87.90;;;;;;5135382;27;20547;-76
2022/03/04 06:10:38;;;;;;;26.98;15.57;;;-3276.30;88.10;;;;;;5135516;27;20059;-76
2022/03/04 06:13:04;;;;;;;30.27;17.73;;;-3276.30;88.00;;;;;;5135254;27;20049;-76
2022/03/04 06:15:30;;;;;;;27.88;16.30;;;-3276.30;88.40;;;;;;5134987;27;20043;-76
2022/03/04 06:17:55;;;;;;;31.35;15.85;;;-3276.20;89.00;;;;;;5117858;27;20031;-76
2022/03/04 06:20:21;;;;;;;26.52;15.95;;;-3276.10;89.30;;;;;;5135402;27;20087;-78
2022/03/04 06:22:47;;;;;;;31.52;17.05;;;-3276.10;89.80;;;;;;5135048;27;20456;-77
2022/03/04 06:25:16;;;;;;;31.85;17.17;;;-3276.00;89.80;;;;;;5118458;27;20035;-77
2022/03/04 06:27:57;;;;;;;31.38;17.38;;;-3276.00;89.90;;;;;;5134877;27;20036;-77
2022/03/04 06:30:25;;;;;;;43.85;23.67;;;-3276.00;89.80;;;;;;5134774;27;20047;-77
2022/03/04 06:33:29;;;;;;;137.02;69.60;;;-3276.00;89.70;;;;;;5117552;27;20050;-77
2022/03/04 06:35:37;;;;;;;72.63;40.05;;;-3276.00;89.90;;;;;;5119974;27;20043;-76
2022/03/04 06:38:04;;;;;;;37.15;20.77;;;-3276.00;89.70;;;;;;5134610;27;20046;-76
2022/03/04 06:40:29;;;;;;;32.83;18.33;;;-3276.00;89.70;;;;;;5134966;27;20058;-77
2022/03/04 06:42:55;;;;;;;32.65;17.77;;;-3276.00;90.00;;;;;;5134567;27;20031;-77
2022/03/04 06:45:21;;;;;;;34.00;19.42;;;-3276.00;90.60;;;;;;5100709;27;20050;-77
2022/03/04 06:47:46;;;;;;;37.72;20.80;;;-3275.90;90.80;;;;;;5100514;27;20042;-77
2022/03/04 06:50:12;;;;;;;35.97;21.10;;;-3276.00;90.90;;;;;;5134880;27;20039;-77
2022/03/04 06:52:38;;;;;;;35.95;18.80;;;-3276.00;91.00;;;;;;5117668;27;20549;-78
2022/03/04 06:55:04;;;;;;;38.47;20.10;;;-3276.00;90.90;;;;;;5100741;27;20410;-77
2022/03/04 06:57:30;;;;;;;35.58;19.63;;;-3276.00;91.30;;;;;;5100309;27;20122;-77
2022/03/04 06:59:55;;;;;;;40.05;20.73;;;-3276.00;91.50;;;;;;5134394;27;20121;-77
2022/03/04 07:02:22;;;;;;;37.78;21.88;;;-3276.00;91.90;;;;;;5134237;27;20065;-77
2022/03/04 07:04:49;;;;;;;41.75;21.98;;;-3275.90;92.20;;;;;;5133684;27;20513;-77
2022/03/04 07:07:15;;;;;;;46.33;22.70;;;-3276.00;92.40;;;;;;5115734;27;20100;-77
2022/03/04 07:09:40;;;;;;;41.78;20.05;;;-3276.00;92.40;;;;;;5132630;27;20505;-77
2022/03/04 07:12:06;;;;;;;44.72;22.25;;;-3276.00;92.50;;;;;;5098727;27;20043;-77
2022/03/04 07:14:32;;;;;;;44.28;23.15;;;-3276.00;92.50;;;;;;5115931;27;20066;-77
2022/03/04 07:16:58;;;;;;;37.65;20.13;;;-3276.00;92.50;;;;;;5133394;27;20035;-77
2022/03/04 07:19:24;;;;;;;44.60;22.02;;;-3276.10;92.50;;;;;;5133475;27;20087;-78
2022/03/04 07:21:50;;;;;;;45.00;23.05;;;-3276.10;92.30;;;;;;5133539;27;20050;-78
2022/03/04 07:24:15;;;;;;;44.00;21.35;;;-3276.10;92.60;;;;;;5116304;27;20039;-77
2022/03/04 07:26:41;;;;;;;40.83;21.65;;;-3276.10;92.70;;;;;;5133619;27;20239;-77
2022/03/04 07:29:07;;;;;;;45.38;23.95;;;-3276.20;92.60;;;;;;5116256;27;20483;-77
2022/03/04 07:31:32;;;;;;;49.25;25.52;;;-3276.20;92.50;;;;;;5133621;27;20050;-77
2022/03/04 07:33:58;;;;;;;45.20;23.25;;;-3276.30;92.50;;;;;;5133095;27;20150;-77
2022/03/04 07:36:24;;;;;;;55.92;25.85;;;-3276.30;92.50;;;;;;5116316;27;20039;-77
2022/03/04 07:38:49;;;;;;;48.22;24.42;;;-3276.20;92.80;;;;;;5116296;27;20041;-77
2022/03/04 07:41:15;;;;;;;40.75;21.60;;;-3276.30;92.60;;;;;;5133019;27;20035;-77
2022/03/04 07:43:41;;;;;;;45.28;23.27;;;-3276.30;92.50;;;;;;5133405;27;20076;-78
2022/03/04 07:46:07;;;;;;;43.33;21.55;;;-3276.30;92.40;;;;;;5133005;27;20462;-77
2022/03/04 07:48:32;;;;;;;39.25;20.92;;;-3276.40;92.10;;;;;;5098549;27;20042;-77
2022/03/04 07:50:58;;;;;;;47.38;23.90;;;-3276.40;92.40;;;;;;5133137;27;20455;-78
2022/03/04 07:53:24;;;;;;;44.13;22.73;;;-3276.50;92.10;;;;;;5116108;27;20134;-78
2022/03/04 07:55:50;;;;;;;44.20;21.92;;;-3276.50;92.00;;;;;;5132835;27;20085;-77
2022/03/04 07:58:15;;;;;;;43.53;22.80;;;-3276.50;91.90;;;;;;5098914;27;20037;-77
2022/03/04 08:00:41;;;;;;;40.20;22.13;;;-3276.60;91.60;;;;;;5098815;27;20035;-78
2022/03/04 08:03:07;;;;;;;52.03;22.98;;;-3276.60;91.90;;;;;;5115742;27;20060;-77
2022/03/04 08:05:33;;;;;;;40.78;20.40;;;-3276.60;92.20;;;;;;5132804;27;20061;-77
2022/03/04 08:07:59;;;;;;;44.15;23.55;;;-3276.60;92.10;;;;;;5116136;28;20065;-77
2022/03/04 08:10:25;;;;;;;46.88;23.75;;;-3276.70;91.50;;;;;;5132805;27;20436;-77
2022/03/04 08:12:51;;;;;;;40.58;22.10;;;-3276.70;91.70;;;;;;5132978;27;20087;-77
2022/03/04 08:15:16;;;;;;;44.40;23.20;;;0.00;90.90;;;;;;5098662;27;20483;-77
2022/03/04 08:17:44;;;;;;;46.17;23.13;;;0.00;90.60;;;;;;5115564;27;20035;-77
2022/03/04 08:20:11;;;;;;;43.58;22.55;;;0.00;90.60;;;;;;5132912;27;20062;-77
2022/03/04 08:22:36;;;;;;;50.22;24.08;;;0.00;91.50;;;;;;5115778;28;20035;-77
2022/03/04 08:25:10;;;;;;;45.60;23.88;;;0.00;91.70;;;;;;5132685;28;20038;-77
2022/03/04 08:27:40;;;;;;;45.00;22.27;;;0.00;92.00;;;;;;5115455;28;20039;-77
2022/03/04 08:30:08;;;;;;;43.60;23.35;;;0.10;91.70;;;;;;5115010;28;20043;-77
2022/03/04 08:32:34;;;;;;;44.28;23.10;;;0.10;91.90;;;;;;5115347;28;20135;-77
2022/03/04 08:35:00;;;;;;;47.30;25.15;;;0.10;91.90;;;;;;5132372;28;20047;-76
2022/03/04 08:37:26;;;;;;;46.78;24.38;;;0.10;91.90;;;;;;5132689;28;20035;-76
2022/03/04 08:39:51;;;;;;;44.70;24.25;;;0.10;92.00;;;;;;5132298;28;20494;-76
2022/03/04 08:42:17;;;;;;;50.30;25.25;;;0.10;92.30;;;;;;5132489;28;20035;-76
2022/03/04 08:44:43;;;;;;;48.65;23.75;;;0.20;92.10;;;;;;5132336;28;20112;-76
2022/03/04 08:47:09;;;;;;;46.28;23.25;;;0.20;91.80;;;;;;5081582;28;20122;-77
2022/03/04 08:49:35;;;;;;;55.53;33.83;;;0.20;91.90;;;;;;5115514;28;20075;-76
2022/03/04 08:52:01;;;;;;;66.38;39.35;;;0.20;92.10;;;;;;5115488;28;20372;-77
2022/03/04 08:54:27;;;;;;;134.23;89.32;;;0.30;92.00;;;;;;5098376;28;20046;-77
2022/03/04 08:56:53;;;;;;;47.13;25.95;;;0.40;91.20;;;;;;5132490;28;20142;-76
2022/03/04 08:59:19;;;;;;;48.53;24.33;;;0.40;91.60;;;;;;5132367;28;20523;-77
2022/03/04 09:01:45;;;;;;;45.10;23.55;;;0.40;91.70;;;;;;5118624;27;20383;-77
2022/03/04 09:04:14;;;;;;;43.40;23.63;;;0.40;91.90;;;;;;5136174;27;20035;-76
2022/03/04 09:06:40;;;;;;;42.92;24.42;;;0.40;91.80;;;;;;5119387;27;20057;-77
2022/03/04 09:09:06;;;;;;;47.08;24.23;;;0.40;91.80;;;;;;5136303;27;20098;-77
2022/03/04 09:11:32;;;;;;;43.78;23.38;;;0.40;92.00;;;;;;5136218;27;20035;-77
2022/03/04 09:13:58;;;;;;;41.40;23.77;;;0.50;92.10;;;;;;5118988;27;20031;-77
2022/03/04 09:16:24;;;;;;;41.40;22.88;;;0.60;92.10;;;;;;5118940;27;20394;-77
2022/03/04 09:18:50;;;;;;;41.80;22.45;;;0.60;92.00;;;;;;5135938;27;20035;-77
2022/03/04 09:21:16;;;;;;;40.38;23.98;;;0.70;91.90;;;;;;5135719;27;20339;-77
2022/03/04 09:23:41;;;;;;;35.95;21.55;;;0.80;91.30;;;;;;5118899;27;20046;-77
2022/03/04 09:26:08;;;;;;;39.72;21.65;;;0.80;91.20;;;;;;5084727;27;20074;-77
2022/03/04 09:28:34;;;;;;;39.47;23.20;;;0.80;91.30;;;;;;5136082;27;20039;-77
2022/03/04 09:31:00;;;;;;;39.20;22.52;;;0.80;91.40;;;;;;5118534;27;20043;-77
2022/03/04 09:33:27;;;;;;;38.90;22.50;;;0.80;91.20;;;;;;5101808;27;20507;-78
2022/03/04 09:35:53;;;;;;;37.30;22.42;;;0.90;91.30;;;;;;5101380;27;20042;-78
2022/03/04 09:38:19;;;;;;;41.78;23.45;;;1.00;91.40;;;;;;5135227;27;20039;-78
2022/03/04 09:40:47;;;;;;;41.78;24.05;;;1.10;91.10;;;;;;5135860;27;20039;-78
2022/03/04 09:43:15;;;;;;;39.83;22.63;;;1.10;91.00;;;;;;5101851;27;20471;-78
2022/03/04 09:45:41;;;;;;;38.35;21.98;;;1.20;91.00;;;;;;5084742;27;20130;-77
2022/03/04 09:48:10;;;;;;;37.35;21.05;;;1.30;91.10;;;;;;5101158;27;20097;-77
2022/03/04 09:50:37;;;;;;;45.20;24.48;;;1.50;91.10;;;;;;5118160;27;20099;-78
2022/03/04 09:53:09;;;;;;;37.72;21.85;;;1.70;91.10;;;;;;5135428;27;20126;-78
2022/03/04 09:55:35;;;;;;;38.95;22.33;;;1.90;90.90;;;;;;5135322;27;20035;-77
2022/03/04 09:58:01;;;;;;;37.35;21.90;;;2.10;90.60;;;;;;5135254;27;20035;-78
2022/03/04 10:00:26;;;;;;;33.63;20.38;;;2.40;90.20;;;;;;5117658;27;20050;-78
2022/03/04 10:02:52;;;;;;;40.50;22.80;;;2.50;89.80;;;;;;5118051;27;20038;-78
2022/03/04 10:05:18;;;;;;;36.67;20.65;;;2.50;89.30;;;;;;5117782;27;20115;-78
2022/03/04 10:07:49;;;;;;;35.67;20.98;;;2.80;89.50;;;;;;5100733;27;20043;-78
2022/03/04 10:10:17;;;;;;;34.10;20.75;;;3.00;89.30;;;;;;5117873;27;20478;-78
2022/03/04 10:12:48;;;;;;;34.90;21.13;;;3.10;88.70;;;;;;5134366;27;20035;-78
2022/03/04 10:15:14;;;;;;;34.05;23.05;;;3.20;88.00;;;;;;5117899;27;20036;-78
2022/03/04 10:17:40;;;;;;;34.58;20.30;;;3.30;88.20;;;;;;5117645;27;20540;-78
2022/03/04 10:20:14;;;;;;;36.60;23.38;;;3.30;87.80;;;;;;5083746;27;20039;-78
2022/03/04 10:22:42;;;;;;;39.35;23.42;;;3.20;86.50;;;;;;5117676;27;20035;-78
2022/03/04 10:25:24;;;;;;;34.10;23.02;;;3.20;86.90;;;;;;5117632;27;20043;-78
2022/03/04 10:27:50;;;;;;;38.08;23.27;;;3.20;86.90;;;;;;5134514;27;20039;-78
2022/03/04 10:30:28;;;;;;;37.92;24.33;;;3.20;86.50;;;;;;5134675;27;20046;-78
2022/03/04 10:33:14;;;;;;;38.10;22.80;;;3.40;86.70;;;;;;5134510;27;20039;-78
2022/03/04 10:35:40;;;;;;;37.58;22.98;;;3.50;86.80;;;;;;5117152;27;20039;-78
2022/03/04 10:38:16;;;;;;;42.10;25.52;;;3.80;86.80;;;;;;5134610;27;20130;-78
2022/03/04 10:40:44;;;;;;;40.97;24.80;;;4.10;86.80;;;;;;5118670;27;20039;-78
2022/03/04 10:43:12;;;;;;;34.13;21.38;;;4.20;85.70;;;;;;5117221;27;20039;-78
2022/03/04 10:45:40;;;;;;;29.63;18.77;;;4.50;86.00;;;;;;5117086;27;20058;-78
2022/03/04 10:48:10;;;;;;;29.42;19.33;;;4.50;84.10;;;;;;5117096;27;20467;-78
2022/03/04 10:50:42;;;;;;;30.73;19.38;;;4.60;83.40;;;;;;5134399;27;20178;-78
2022/03/04 10:53:09;;;;;;;26.77;17.58;;;4.80;84.00;;;;;;5134013;27;20034;-78
2022/03/04 10:55:40;;;;;;;28.30;17.95;;;5.00;83.40;;;;;;5133944;27;20047;-78
2022/03/04 10:58:28;;;;;;;23.17;16.02;;;5.20;84.10;;;;;;5134341;27;20035;-79
2022/03/04 11:00:59;;;;;;;28.85;17.88;;;5.30;83.70;;;;;;5116902;27;20372;-79
2022/03/04 11:03:32;;;;;;;25.25;17.08;;;5.50;82.10;;;;;;5133899;27;20039;-79
2022/03/04 11:06:01;;;;;;;24.38;16.13;;;5.60;81.00;;;;;;5133667;27;20054;-79
2022/03/04 11:08:27;;;;;;;24.08;16.33;;;5.80;81.60;;;;;;5133850;27;20050;-79
2022/03/04 11:10:55;;;;;;;22.17;14.95;;;6.00;81.50;;;;;;5099865;27;20467;-78
2022/03/04 11:13:22;;;;;;;21.98;14.50;;;6.10;80.20;;;;;;5116629;27;20050;-79
2022/03/04 11:15:50;;;;;;;25.92;16.27;;;6.40;80.20;;;;;;5099670;27;20039;-78
2022/03/04 11:18:18;;;;;;;19.60;13.88;;;6.50;79.40;;;;;;5116743;27;20045;-78
2022/03/04 11:20:49;;;;;;;20.65;14.25;;;6.60;78.90;;;;;;5116403;27;20073;-78
2022/03/04 11:23:32;;;;;;;23.77;15.98;;;6.60;76.40;;;;;;5133530;27;20460;-78
2022/03/04 11:26:02;;;;;;;23.05;15.88;;;6.60;76.10;;;;;;5116124;27;20051;-78
2022/03/04 11:28:43;;;;;;;21.77;14.90;;;6.80;76.30;;;;;;5116374;27;20047;-78
2022/03/04 11:31:12;;;;;;;20.23;13.95;;;7.10;77.20;;;;;;5133448;27;20035;-78
2022/03/04 11:34:00;;;;;;;22.42;14.82;;;7.20;76.50;;;;;;5129912;27;20072;-78
2022/03/04 11:36:39;;;;;;;21.23;13.80;;;7.50;76.70;;;;;;5124282;27;20395;-78
2022/03/04 11:39:10;;;;;;;20.13;15.20;;;7.60;76.00;;;;;;5121792;27;20118;-78
2022/03/04 11:41:39;;;;;;;22.73;15.85;;;7.90;75.60;;;;;;5121987;27;20031;-77
2022/03/04 11:44:10;;;;;;;21.00;14.95;;;8.10;75.80;;;;;;5124376;27;20035;-77
2022/03/04 11:46:45;;;;;;;19.65;13.55;;;8.30;75.30;;;;;;5133159;27;20039;-77
2022/03/04 11:49:38;;;;;;;19.85;14.30;;;8.50;75.10;;;;;;5133078;27;20035;-77
2022/03/04 11:52:10;;;;;;;22.38;14.45;;;8.50;73.50;;;;;;5133008;27;20506;-79
2022/03/04 11:54:44;;;;;;;24.02;17.08;;;8.80;74.10;;;;;;5132889;27;20494;-78
2022/03/04 11:57:21;;;;;;;21.40;14.85;;;9.00;72.90;;;;;;5120461;27;20138;-79
2022/03/04 11:59:51;;;;;;;22.58;15.75;;;9.00;71.80;;;;;;5112749;28;20475;-80
2022/03/04 12:02:29;;;;;;;19.45;13.30;;;9.00;72.20;;;;;;5095377;28;20047;-78
2022/03/04 12:05:13;;;;;;;20.83;13.77;;;9.10;70.70;;;;;;5114187;27;20471;-79
2022/03/04 12:07:47;;;;;;;18.17;13.43;;;9.00;70.00;;;;;;5133102;27;20372;-81
2022/03/04 12:10:19;;;;;;;16.83;12.60;;;9.20;69.40;;;;;;5115627;28;20104;-81
2022/03/04 12:13:04;;;;;;;20.25;14.40;;;9.30;69.10;;;;;;5115861;28;20047;-80
2022/03/04 12:15:37;;;;;;;20.73;15.43;;;9.50;69.10;;;;;;5129608;27;20049;-80
2022/03/04 12:18:25;;;;;;;20.10;14.55;;;9.60;69.70;;;;;;5127789;27;20376;-79
2022/03/04 12:20:53;;;;;;;17.02;13.20;;;9.60;67.10;;;;;;5099646;28;20096;-78
2022/03/04 12:23:36;;;;;;;18.52;12.27;;;9.80;67.20;;;;;;5117565;28;20039;-80
2022/03/04 12:26:01;;;;;;;17.30;12.60;;;10.00;66.90;;;;;;5128090;28;20070;-79
2022/03/04 12:28:33;;;;;;;17.73;13.15;;;10.10;66.20;;;;;;5112288;28;20487;-79